Time;durP1;ratioP1;P1;durP2;ratioP2;P2;SDS_P1;SDS_P2;PMS_P1;PMS_P2;Temp;Humidity;BMP_temperature;BMP_pressure;BME280_temperature;BME280_humidity;BME280_pressure;Samples;Min_cycle;Max_cycle;Signal;HPM_P1;HPM_P2
2022/04/27 00:00:15;;;;;;;9.65;4.57;;;;;;;;;;4739125;30;20058;-90
2022/04/27 00:02:41;;;;;;;8.52;4.00;;;;;;;;;;4725816;30;20055;-89
2022/04/27 00:05:07;;;;;;;13.15;3.85;;;;;;;;;;4738333;30;20079;-90
2022/04/27 00:07:33;;;;;;;6.13;3.38;;;;;;;;;;4724316;30;20510;-90
2022/04/27 00:09:59;;;;;;;7.22;3.28;;;;;;;;;;4725412;30;20067;-89
2022/04/27 00:12:26;;;;;;;5.13;3.67;;;;;;;;;;4724181;30;20568;-90
2022/04/27 00:14:55;;;;;;;8.52;3.60;;;;;;;;;;4724915;30;20133;-91
2022/04/27 00:17:21;;;;;;;9.30;3.70;;;;;;;;;;4725038;30;20045;-92
2022/04/27 00:19:47;;;;;;;7.57;3.30;;;;;;;;;;4724527;30;20067;-92
2022/04/27 00:22:14;;;;;;;4.32;2.53;;;;;;;;;;4724398;30;20052;-91
2022/04/27 00:24:40;;;;;;;4.88;3.05;;;;;;;;;;4724108;30;20063;-91
2022/04/27 00:27:06;;;;;;;9.98;3.33;;;;;;;;;;4742875;30;20044;-93
2022/04/27 00:29:32;;;;;;;8.93;3.83;;;;;;;;;;4727250;30;20052;-93
2022/04/27 00:31:58;;;;;;;6.68;3.30;;;;;;;;;;4726148;30;20139;-93
2022/04/27 00:34:25;;;;;;;5.80;3.83;;;;;;;;;;4725819;30;20091;-93
2022/04/27 00:36:51;;;;;;;12.68;3.70;;;;;;;;;;4741174;30;20051;-93
2022/04/27 00:39:17;;;;;;;5.45;3.30;;;;;;;;;;4725540;30;20056;-94
2022/04/27 00:41:59;;;;;;;6.18;2.70;;;;;;;;;;4725720;30;20079;-93
2022/04/27 00:44:29;;;;;;;6.13;3.15;;;;;;;;;;4725719;30;20052;-94
2022/04/27 00:46:55;;;;;;;5.93;3.00;;;;;;;;;;4725613;30;20139;-95
2022/04/27 00:49:21;;;;;;;5.80;3.78;;;;;;;;;;4725980;30;20066;-93
2022/04/27 00:51:48;;;;;;;8.88;4.32;;;;;;;;;;4726912;30;20067;-95
2022/04/27 00:54:14;;;;;;;8.38;3.40;;;;;;;;;;4727160;30;20052;-94
2022/04/27 00:56:40;;;;;;;9.05;3.10;;;;;;;;;;4728041;30;20052;-93
2022/04/27 00:59:07;;;;;;;6.50;3.53;;;;;;;;;;4729186;30;20048;-94
2022/04/27 01:01:33;;;;;;;10.98;3.72;;;;;;;;;;4729283;30;20139;-94
2022/04/27 01:03:59;;;;;;;13.73;3.65;;;;;;;;;;4729933;30;20575;-94
2022/04/27 01:06:25;;;;;;;6.55;2.90;;;;;;;;;;4730691;30;20125;-93
2022/04/27 01:08:52;;;;;;;6.00;3.13;;;;;;;;;;4745357;30;20056;-93
2022/04/27 01:11:18;;;;;;;5.70;3.33;;;;;;;;;;4744722;30;20052;-93
2022/04/27 01:13:47;;;;;;;5.35;3.65;;;;;;;;;;4730257;30;20055;-93
2022/04/27 01:16:13;;;;;;;9.48;3.67;;;;;;;;;;4733448;30;20048;-92
2022/04/27 01:18:39;;;;;;;9.18;3.40;;;;;;;;;;4748402;30;20114;-92
2022/04/27 01:21:05;;;;;;;8.35;3.65;;;;;;;;;;4732644;30;20056;-92
2022/04/27 01:23:31;;;;;;;5.43;3.13;;;;;;;;;;4747024;30;20048;-92
2022/04/27 01:26:05;;;;;;;9.63;3.80;;;;;;;;;;4731493;30;20048;-92
2022/04/27 01:28:31;;;;;;;3.85;3.17;;;;;;;;;;4731372;30;20560;-92
2022/04/27 01:31:02;;;;;;;8.85;3.13;;;;;;;;;;4731429;30;20052;-92
2022/04/27 01:33:29;;;;;;;9.60;3.72;;;;;;;;;;4744631;30;20116;-90
2022/04/27 01:35:56;;;;;;;6.90;3.58;;;;;;;;;;4729249;30;20494;-90
2022/04/27 01:38:22;;;;;;;5.13;3.17;;;;;;;;;;4727350;30;20106;-90
2022/04/27 01:40:52;;;;;;;16.52;3.22;;;;;;;;;;4727647;30;20048;-91
2022/04/27 01:43:19;;;;;;;4.55;3.38;;;;;;;;;;4741965;30;20560;-90
2022/04/27 01:45:45;;;;;;;3.97;3.58;;;;;;;;;;4726705;30;20533;-89
2022/04/27 01:48:12;;;;;;;7.55;3.85;;;;;;;;;;4725979;30;20060;-90
2022/04/27 01:50:38;;;;;;;3.88;3.22;;;;;;;;;;4742491;30;20052;-89
2022/04/27 01:55:50;;;;;;;7.78;3.55;;;;;;;;;;4741255;30;20064;-89
2022/04/27 01:58:17;;;;;;;10.40;3.38;;;;;;;;;;4727643;30;20144;-90
2022/04/27 02:00:47;;;;;;;8.13;3.47;;;;;;;;;;4727888;30;20056;-90
2022/04/27 02:03:14;;;;;;;6.85;3.38;;;;;;;;;;4741473;30;20060;-89
2022/04/27 02:05:40;;;;;;;5.90;3.60;;;;;;;;;;4721417;30;20064;-89
2022/04/27 02:08:07;;;;;;;5.43;3.97;;;;;;;;;;4710112;30;20416;-90
2022/04/27 02:10:34;;;;;;;8.27;3.72;;;;;;;;;;4724501;30;20095;-91
2022/04/27 02:13:01;;;;;;;7.63;3.80;;;;;;;;;;4709345;30;20075;-91
2022/04/27 02:15:27;;;;;;;6.72;3.53;;;;;;;;;;4710854;30;20057;-93
2022/04/27 02:17:53;;;;;;;5.40;3.72;;;;;;;;;;4725233;30;20155;-93
2022/04/27 02:20:22;;;;;;;5.05;3.78;;;;;;;;;;4741047;30;20065;-93
2022/04/27 02:22:48;;;;;;;4.43;3.50;;;;;;;;;;4711268;30;20049;-92
2022/04/27 02:25:14;;;;;;;11.35;4.15;;;;;;;;;;4710072;30;20056;-92
2022/04/27 02:27:41;;;;;;;4.82;3.70;;;;;;;;;;4708340;30;20063;-93
2022/04/27 02:30:09;;;;;;;7.05;4.43;;;;;;;;;;4710527;30;20128;-94
2022/04/27 02:32:35;;;;;;;6.60;3.40;;;;;;;;;;4709981;30;20045;-92
2022/04/27 02:35:01;;;;;;;6.22;3.55;;;;;;;;;;4709225;30;20454;-93
2022/04/27 02:37:27;;;;;;;8.00;3.70;;;;;;;;;;4709842;30;20060;-94
2022/04/27 02:39:53;;;;;;;11.77;3.97;;;;;;;;;;4724979;30;20480;-93
2022/04/27 02:42:19;;;;;;;5.28;3.20;;;;;;;;;;4724983;30;20053;-94
2022/04/27 02:44:45;;;;;;;6.53;3.50;;;;;;;;;;4725192;30;20049;-93
2022/04/27 02:47:12;;;;;;;4.45;3.97;;;;;;;;;;4709232;30;20102;-93
2022/04/27 02:52:25;;;;;;;15.48;4.18;;;;;;;;;;4724933;30;20063;-93
2022/04/27 02:54:51;;;;;;;3.60;3.30;;;;;;;;;;4710641;30;20048;-93
2022/04/27 02:57:17;;;;;;;6.90;3.42;;;;;;;;;;4710656;30;20055;-94
2022/04/27 02:59:44;;;;;;;5.05;3.47;;;;;;;;;;4710490;30;20139;-90
2022/04/27 03:02:10;;;;;;;6.35;3.75;;;;;;;;;;4708871;30;20064;-90
2022/04/27 03:04:36;;;;;;;5.45;4.15;;;;;;;;;;4723345;30;20052;-89
2022/04/27 03:07:02;;;;;;;6.65;4.00;;;;;;;;;;4709092;30;20114;-92
2022/04/27 03:09:29;;;;;;;8.27;4.20;;;;;;;;;;4724177;30;20052;-91
2022/04/27 03:11:56;;;;;;;12.77;4.47;;;;;;;;;;4723811;30;20063;-91
2022/04/27 03:14:22;;;;;;;5.78;3.97;;;;;;;;;;4724407;30;20052;-90
2022/04/27 03:16:49;;;;;;;6.13;4.15;;;;;;;;;;4708927;30;20117;-90
2022/04/27 03:19:15;;;;;;;6.32;3.58;;;;;;;;;;4709324;30;20078;-91
2022/04/27 03:21:42;;;;;;;6.88;4.22;;;;;;;;;;4710300;30;20053;-90
2022/04/27 03:24:08;;;;;;;5.80;4.50;;;;;;;;;;4709881;30;20049;-91
2022/04/27 03:26:35;;;;;;;7.72;4.03;;;;;;;;;;4722823;30;20067;-91
2022/04/27 03:29:01;;;;;;;7.95;4.53;;;;;;;;;;4708747;30;20044;-91
2022/04/27 03:31:27;;;;;;;5.70;4.35;;;;;;;;;;4710241;30;20106;-92
2022/04/27 03:33:53;;;;;;;4.35;3.95;;;;;;;;;;4707726;30;20075;-89
2022/04/27 03:36:19;;;;;;;8.07;4.22;;;;;;;;;;4708630;30;20120;-91
2022/04/27 03:38:48;;;;;;;6.15;3.80;;;;;;;;;;4723133;30;20537;-91
2022/04/27 03:41:19;;;;;;;8.40;4.20;;;;;;;;;;4723248;30;20044;-91
2022/04/27 03:43:45;;;;;;;5.53;4.20;;;;;;;;;;4707759;30;20053;-89
2022/04/27 03:46:11;;;;;;;4.68;4.03;;;;;;;;;;4708652;30;20057;-90
2022/04/27 03:48:37;;;;;;;11.57;4.00;;;;;;;;;;4708244;30;20199;-91
2022/04/27 03:51:04;;;;;;;5.78;4.53;;;;;;;;;;4708219;30;20052;-91
2022/04/27 03:53:30;;;;;;;7.30;3.90;;;;;;;;;;4707905;30;20057;-91
2022/04/27 03:55:56;;;;;;;8.50;4.55;;;;;;;;;;4722228;30;20499;-90
2022/04/27 03:58:22;;;;;;;6.68;4.03;;;;;;;;;;4707268;30;20499;-90
2022/04/27 04:00:51;;;;;;;11.27;4.93;;;;;;;;;;4721603;30;20143;-90
2022/04/27 04:03:17;;;;;;;6.47;4.22;;;;;;;;;;4722526;30;20045;-90
2022/04/27 04:05:43;;;;;;;8.43;3.88;;;;;;;;;;4709003;30;20057;-89
2022/04/27 04:08:10;;;;;;;4.88;3.40;;;;;;;;;;4722292;30;20099;-89
2022/04/27 04:10:36;;;;;;;5.20;3.88;;;;;;;;;;4707432;30;20044;-90
2022/04/27 04:13:02;;;;;;;6.07;3.17;;;;;;;;;;4707388;30;20049;-90
2022/04/27 04:15:28;;;;;;;8.27;3.58;;;;;;;;;;4707436;30;20056;-89
2022/04/27 04:17:55;;;;;;;8.55;3.95;;;;;;;;;;4707206;30;20451;-90
2022/04/27 04:20:21;;;;;;;4.78;3.33;;;;;;;;;;4722736;30;20113;-90
2022/04/27 04:22:48;;;;;;;5.85;3.55;;;;;;;;;;4721940;30;20049;-91
2022/04/27 04:30:45;;;;;;;8.15;3.55;;;;;;;;;;4722146;30;20149;-90
2022/04/27 04:33:11;;;;;;;12.05;3.92;;;;;;;;;;4725159;30;20053;-90
2022/04/27 04:35:37;;;;;;;7.47;3.20;;;;;;;;;;4711664;30;20056;-91
2022/04/27 04:38:04;;;;;;;6.50;3.92;;;;;;;;;;4727956;30;20057;-91
2022/04/27 04:40:30;;;;;;;10.02;4.40;;;;;;;;;;4726532;30;20056;-90
2022/04/27 04:42:57;;;;;;;6.00;3.30;;;;;;;;;;4713644;30;20045;-89
2022/04/27 04:45:23;;;;;;;5.53;3.72;;;;;;;;;;4712621;30;20052;-90
2022/04/27 04:47:49;;;;;;;7.63;4.50;;;;;;;;;;4726754;30;20063;-91
2022/04/27 04:50:16;;;;;;;6.45;3.80;;;;;;;;;;4711293;30;20053;-90
2022/04/27 04:52:42;;;;;;;8.65;3.80;;;;;;;;;;4713507;30;20056;-88
2022/04/27 04:55:09;;;;;;;4.70;3.85;;;;;;;;;;4712246;30;20060;-91
2022/04/27 04:57:35;;;;;;;4.85;2.53;;;;;;;;;;4713135;30;20064;-89
2022/04/27 05:00:02;;;;;;;2.50;2.30;;;;;;;;;;4711802;30;20056;-90
2022/04/27 05:02:31;;;;;;;2.47;2.28;;;;;;;;;;4710123;30;20057;-89
2022/04/27 05:04:57;;;;;;;2.60;2.40;;;;;;;;;;4709544;30;20052;-90
2022/04/27 05:07:23;;;;;;;3.83;2.80;;;;;;;;;;4709110;30;20090;-90
2022/04/27 05:09:49;;;;;;;3.75;3.00;;;;;;;;;;4725798;30;20147;-89
2022/04/27 05:12:15;;;;;;;6.15;3.65;;;;;;;;;;4709934;30;20075;-89
2022/04/27 05:14:42;;;;;;;5.45;3.50;;;;;;;;;;4711659;30;20423;-89
2022/04/27 05:17:08;;;;;;;7.60;3.58;;;;;;;;;;4725531;30;20048;-89
2022/04/27 05:19:35;;;;;;;4.28;3.75;;;;;;;;;;4712473;30;20049;-90
2022/04/27 05:22:01;;;;;;;5.18;4.43;;;;;;;;;;4727106;30;20059;-91
2022/04/27 05:24:27;;;;;;;5.30;3.60;;;;;;;;;;4709564;30;20183;-90
2022/04/27 05:26:53;;;;;;;6.90;3.95;;;;;;;;;;4711134;30;20056;-90
2022/04/27 05:32:05;;;;;;;7.07;3.88;;;;;;;;;;4726935;30;20078;-91
2022/04/27 05:34:40;;;;;;;6.53;3.60;;;;;;;;;;4711191;30;20060;-90
2022/04/27 05:37:06;;;;;;;6.43;3.47;;;;;;;;;;4710979;30;20062;-90
2022/04/27 05:39:33;;;;;;;13.00;4.07;;;;;;;;;;4726927;30;20053;-91
2022/04/27 05:41:59;;;;;;;7.95;3.80;;;;;;;;;;4713195;30;20053;-91
2022/04/27 05:44:25;;;;;;;8.60;3.97;;;;;;;;;;4727939;30;20075;-90
2022/04/27 05:46:55;;;;;;;4.60;3.70;;;;;;;;;;4712434;30;20060;-91
2022/04/27 05:49:21;;;;;;;4.80;3.25;;;;;;;;;;4711088;30;20048;-91
2022/04/27 05:51:48;;;;;;;5.55;3.53;;;;;;;;;;4725470;30;20067;-89
2022/04/27 05:54:15;;;;;;;6.60;3.75;;;;;;;;;;4724446;30;20056;-91
2022/04/27 05:56:42;;;;;;;6.88;4.15;;;;;;;;;;4709893;30;20191;-93
2022/04/27 05:59:08;;;;;;;6.20;4.15;;;;;;;;;;4725540;30;20059;-92
2022/04/27 06:01:35;;;;;;;6.53;3.38;;;;;;;;;;4710686;30;20165;-93
2022/04/27 06:04:01;;;;;;;4.45;2.72;;;;;;;;;;4710531;30;20084;-92
2022/04/27 06:06:30;;;;;;;4.93;2.70;;;;;;;;;;4710121;30;20091;-87
2022/04/27 06:09:03;;;;;;;5.63;2.85;;;;;;;;;;4725782;30;20058;-91
2022/04/27 06:11:29;;;;;;;6.32;4.03;;;;;;;;;;4727350;30;20052;-89
2022/04/27 06:13:58;;;;;;;9.43;3.95;;;;;;;;;;4711533;30;20079;-90
2022/04/27 06:16:24;;;;;;;5.93;3.80;;;;;;;;;;4711841;30;20080;-89
2022/04/27 06:18:50;;;;;;;7.63;3.92;;;;;;;;;;4725530;30;20099;-90
2022/04/27 06:21:20;;;;;;;5.28;3.63;;;;;;;;;;4709566;30;20182;-89
2022/04/27 06:23:46;;;;;;;8.48;4.47;;;;;;;;;;4741333;30;20060;-92
2022/04/27 06:26:13;;;;;;;7.32;3.30;;;;;;;;;;4740218;30;20055;-92
2022/04/27 06:28:42;;;;;;;10.32;3.75;;;;;;;;;;4711154;30;20060;-91
2022/04/27 06:31:08;;;;;;;5.63;3.03;;;;;;;;;;4709777;30;20048;-93
2022/04/27 06:33:34;;;;;;;7.47;2.97;;;;;;;;;;4724148;30;20503;-90
2022/04/27 06:36:00;;;;;;;4.93;3.15;;;;;;;;;;4708607;30;20100;-92
2022/04/27 06:38:26;;;;;;;4.78;2.80;;;;;;;;;;4711054;30;20052;-93
2022/04/27 06:40:52;;;;;;;4.80;3.22;;;;;;;;;;4703820;30;20399;-92
2022/04/27 06:43:18;;;;;;;6.72;3.38;;;;;;;;;;4727931;30;20057;-91
2022/04/27 06:45:47;;;;;;;3.83;3.25;;;;;;;;;;4710405;30;20086;-94
2022/04/27 06:48:13;;;;;;;4.50;3.53;;;;;;;;;;4711022;30;20049;-92
2022/04/27 06:50:40;;;;;;;11.38;3.28;;;;;;;;;;4740964;30;20057;-93
2022/04/27 06:53:06;;;;;;;11.32;2.83;;;;;;;;;;4711157;30;20055;-92
2022/04/27 06:55:33;;;;;;;5.68;3.47;;;;;;;;;;4738694;30;20503;-94
2022/04/27 06:57:59;;;;;;;4.60;3.17;;;;;;;;;;4725131;30;20111;-92
2022/04/27 07:00:25;;;;;;;6.15;3.58;;;;;;;;;;4710796;30;20479;-90
2022/04/27 07:02:52;;;;;;;12.90;3.05;;;;;;;;;;4724971;30;20133;-90
2022/04/27 07:05:20;;;;;;;11.98;3.55;;;;;;;;;;4727487;30;20053;-92
2022/04/27 07:07:46;;;;;;;7.25;3.60;;;;;;;;;;4729073;30;20142;-94
2022/04/27 07:10:12;;;;;;;5.18;3.33;;;;;;;;;;4742175;30;20051;-94
2022/04/27 07:12:39;;;;;;;6.75;3.05;;;;;;;;;;4727704;30;20052;-93
2022/04/27 07:15:06;;;;;;;4.25;2.80;;;;;;;;;;4727629;30;20517;-90
2022/04/27 07:17:33;;;;;;;6.38;2.58;;;;;;;;;;4727835;30;20048;-93
2022/04/27 07:19:59;;;;;;;7.32;2.38;;;;;;;;;;4742029;30;20043;-92
2022/04/27 07:22:25;;;;;;;11.38;3.45;;;;;;;;;;4727955;30;20115;-94
2022/04/27 07:24:54;;;;;;;10.68;2.50;;;;;;;;;;4741035;30;20056;-96
2022/04/27 07:27:23;;;;;;;7.57;2.72;;;;;;;;;;4742600;30;20055;-96
2022/04/27 07:29:49;;;;;;;8.63;2.80;;;;;;;;;;4726675;30;20052;-95
2022/04/27 07:32:15;;;;;;;3.22;2.30;;;;;;;;;;4727206;30;20487;-94
2022/04/27 07:34:42;;;;;;;3.05;2.72;;;;;;;;;;4757127;30;20141;-94
2022/04/27 07:37:10;;;;;;;7.45;2.95;;;;;;;;;;4726820;30;20060;-94
2022/04/27 07:39:36;;;;;;;8.30;2.92;;;;;;;;;;4727510;30;20063;-92
2022/04/27 07:42:02;;;;;;;4.53;2.60;;;;;;;;;;4742181;30;20056;-92
2022/04/27 07:44:28;;;;;;;3.65;2.55;;;;;;;;;;4728159;30;20120;-91
2022/04/27 07:46:54;;;;;;;3.58;2.33;;;;;;;;;;4743647;30;20056;-92
2022/04/27 07:49:23;;;;;;;5.00;3.00;;;;;;;;;;4743880;30;20082;-91
2022/04/27 07:51:49;;;;;;;5.35;3.08;;;;;;;;;;4726801;30;20048;-95
2022/04/27 07:54:15;;;;;;;13.55;3.80;;;;;;;;;;4725456;30;20109;-94
2022/04/27 07:56:41;;;;;;;7.80;3.00;;;;;;;;;;4727834;30;20059;-94
2022/04/27 07:59:08;;;;;;;8.63;3.40;;;;;;;;;;4740123;30;20140;-93
2022/04/27 08:01:37;;;;;;;6.75;3.17;;;;;;;;;;4741186;30;20525;-90
2022/04/27 08:04:03;;;;;;;9.23;3.60;;;;;;;;;;4726100;30;20514;-95
2022/04/27 08:06:29;;;;;;;7.55;3.22;;;;;;;;;;4739096;30;20064;-93
2022/04/27 08:08:56;;;;;;;4.18;3.10;;;;;;;;;;4740852;30;20544;-93
2022/04/27 08:11:23;;;;;;;5.07;3.22;;;;;;;;;;4738966;30;20056;-92
2022/04/27 08:13:49;;;;;;;6.05;3.53;;;;;;;;;;4726516;30;20048;-94
2022/04/27 08:16:15;;;;;;;12.35;3.40;;;;;;;;;;4725515;30;20052;-94
2022/04/27 08:18:41;;;;;;;8.07;3.72;;;;;;;;;;4739291;30;20519;-94
2022/04/27 08:21:13;;;;;;;13.70;4.20;;;;;;;;;;4739717;30;20055;-94
2022/04/27 08:23:40;;;;;;;6.38;3.65;;;;;;;;;;4725399;30;20156;-95
2022/04/27 08:26:07;;;;;;;11.07;3.72;;;;;;;;;;4726995;30;20051;-94
2022/04/27 08:28:34;;;;;;;13.77;4.43;;;;;;;;;;4739189;30;20059;-94
2022/04/27 08:31:01;;;;;;;9.20;3.00;;;;;;;;;;4726375;30;20160;-92
2022/04/27 08:33:27;;;;;;;5.63;3.00;;;;;;;;;;4727772;30;20134;-92
2022/04/27 08:35:59;;;;;;;8.40;3.83;;;;;;;;;;4741370;30;20052;-95
2022/04/27 08:38:25;;;;;;;12.02;3.55;;;;;;;;;;4726724;30;20134;-94
2022/04/27 08:40:52;;;;;;;6.68;3.15;;;;;;;;;;4726392;30;20048;-92
2022/04/27 08:43:18;;;;;;;16.02;3.55;;;;;;;;;;4728552;30;20056;-91
2022/04/27 08:45:45;;;;;;;13.07;3.05;;;;;;;;;;4743427;30;20565;-94
2022/04/27 08:48:13;;;;;;;17.10;3.40;;;;;;;;;;4739405;30;20056;-91
2022/04/27 08:50:39;;;;;;;13.20;3.97;;;;;;;;;;4725260;30;20073;-92
2022/04/27 08:53:06;;;;;;;13.88;3.53;;;;;;;;;;4725608;30;20052;-91
2022/04/27 08:55:32;;;;;;;12.90;3.60;;;;;;;;;;4739478;30;20058;-92
2022/04/27 08:58:10;;;;;;;17.02;3.67;;;;;;;;;;4726607;30;20059;-92
2022/04/27 09:00:37;;;;;;;11.40;3.45;;;;;;;;;;4741066;30;20498;-92
2022/04/27 09:03:22;;;;;;;10.70;3.50;;;9.70;99.90;;;;;;4725661;30;20506;-91
2022/04/27 09:05:52;;;;;;;11.35;3.22;;;;;;;;;;4725213;30;20453;-91
2022/04/27 09:08:18;;;;;;;15.95;3.72;;;;;;;;;;4739276;30;20056;-91
2022/04/27 09:10:44;;;;;;;12.10;3.35;;;;;;;;;;4739168;30;20056;-91
2022/04/27 09:13:11;;;;;;;18.88;2.75;;;;;;;;;;4726525;30;20087;-91
2022/04/27 09:15:37;;;;;;;12.20;3.42;;;;;;;;;;4723899;30;20049;-91
2022/04/27 09:21:00;;;;;;;12.73;3.15;;;;;;;;;;4741938;30;20151;-90
2022/04/27 09:23:28;;;;;;;10.77;3.53;;;;;;;;;;4742099;30;20470;-92
2022/04/27 09:26:00;;;;;;;6.32;2.95;;;;;;;;;;4742683;30;20059;-91
2022/04/27 09:28:27;;;;;;;9.90;2.70;;;;;;;;;;4728047;30;20532;-91
2022/04/27 09:30:55;;;;;;;10.50;2.85;;;;;;;;;;4727062;30;20060;-92
2022/04/27 09:33:38;;;;;;;15.48;2.65;;;;;;;;;;4743003;30;20067;-91
2022/04/27 09:36:22;;;;;;;11.75;2.78;;;;;;;;;;4730354;30;20086;-92
2022/04/27 09:38:48;;;;;;;16.65;3.45;;;;;;;;;;4759118;30;20060;-91
2022/04/27 09:41:14;;;;;;;13.93;2.88;;;;;;;;;;4730039;30;20105;-91
2022/04/27 09:43:42;;;;;;;8.02;3.00;;;;;;;;;;4743918;30;20064;-91
2022/04/27 09:46:25;;;;;;;8.05;2.75;;;;;;;;;;4745890;30;20172;-91
2022/04/27 09:49:07;;;;;;;7.07;2.80;;;;;;;;;;4727625;30;20063;-92
2022/04/27 09:51:34;;;;;;;7.50;2.88;;;;;;;;;;4742183;30;20059;-91
2022/04/27 09:54:03;;;;;;;9.43;3.47;;;;;;;;;;4728502;30;20063;-92
2022/04/27 09:56:34;;;;;;;14.65;3.08;;;;;;;;;;4742148;30;20063;-91
2022/04/27 09:59:07;;;;;;;10.30;3.20;;;;;;;;;;4727469;30;20141;-92
2022/04/27 10:01:35;;;;;;;6.50;2.70;;;;;;;;;;4727026;30;20052;-91
2022/04/27 10:04:03;;;;;;;8.15;2.92;;;;;;;;;;4726222;30;20518;-91
2022/04/27 10:06:33;;;;;;;8.35;2.47;;;;;;;;;;4725844;30;20056;-92
2022/04/27 10:09:00;;;;;;;12.30;3.53;;;;;;;;;;4741356;30;20063;-92
2022/04/27 10:11:27;;;;;;;13.15;3.30;;;;;;;;;;4727608;30;20052;-93
2022/04/27 10:13:57;;;;;;;11.70;2.95;;;;;;;;;;4742481;30;20059;-92
2022/04/27 10:16:27;;;;;;;8.50;3.20;;;;;;;;;;4743370;30;20080;-92
2022/04/27 10:18:54;;;;;;;13.10;3.60;;;;;;;;;;4728481;30;20055;-93
2022/04/27 10:21:43;;;;;;;10.82;4.25;;;;;;;;;;4728332;30;20056;-92
2022/04/27 10:24:12;;;;;;;7.85;3.10;;;;;;;;;;4743403;30;20056;-91
2022/04/27 10:26:39;;;;;;;7.20;2.95;;;;;;;;;;4729198;30;20055;-92
2022/04/27 10:29:13;;;;;;;10.00;3.13;;;;;;;;;;4728310;30;20052;-92
2022/04/27 10:31:43;;;;;;;9.05;2.88;;;;;;;;;;4729167;30;20076;-93
2022/04/27 10:34:21;;;;;;;11.40;3.05;;;;;;;;;;4727357;30;20056;-91
2022/04/27 10:36:51;;;;;;;8.63;3.30;;;;;;;;;;4728723;30;20490;-91
2022/04/27 10:39:20;;;;;;;9.52;3.15;;;;;;;;;;4729845;30;20048;-93
2022/04/27 10:41:55;;;;;;;12.35;3.60;;;;;;;;;;4730013;30;20059;-92
2022/04/27 10:44:44;;;;;;;12.13;2.60;;;;;;;;;;4726924;30;20052;-92
2022/04/27 10:47:34;;;;;;;8.32;2.40;;;;;;;;;;4726929;30;20077;-92
2022/04/27 10:50:28;;;;;;;7.75;3.10;;;;;;;;;;4723160;30;20540;-92
2022/04/27 10:53:31;;;;;;;6.80;2.83;;;;;;;;;;4729224;30;20478;-93
2022/04/27 10:56:03;;;;;;;7.55;3.42;;;;;;;;;;4728380;30;20562;-93
2022/04/27 10:58:42;;;;;;;10.20;3.75;;;;;;;;;;4729797;30;20459;-93
2022/04/27 11:01:34;;;;;;;4.57;2.67;;;;;;;;;;4728447;30;20486;-94
2022/04/27 11:04:02;;;;;;;14.63;3.08;;;;;;;;;;4740723;30;20056;-95
2022/04/27 11:06:31;;;;;;;11.63;2.80;;;;;;;;;;4742877;30;20172;-95
2022/04/27 11:09:09;;;;;;;5.60;2.75;;;;;;;;;;4726890;30;20087;-95
2022/04/27 11:11:44;;;;;;;7.32;3.05;;;;;;;;;;4741989;30;20051;-95
2022/04/27 11:14:14;;;;;;;8.45;2.63;;;;;;;;;;4741679;30;20452;-95
2022/04/27 11:16:50;;;;;;;11.98;3.00;;;;;;;;;;4728542;30;20052;-94
2022/04/27 11:19:17;;;;;;;5.25;2.47;;;;;;;;;;4743582;30;20491;-93
2022/04/27 11:21:45;;;;;;;6.53;3.30;;;;;;;;;;4729369;30;20071;-93
2022/04/27 11:24:48;;;;;;;15.68;3.42;;;;;;;;;;4731124;30;20055;-94
2022/04/27 11:27:24;;;;;;;6.55;3.03;;;;;;;;;;4726256;30;20066;-93
2022/04/27 11:29:54;;;;;;;7.72;3.10;;;;;;;;;;4745194;30;20510;-94
2022/04/27 11:32:31;;;;;;;11.75;3.05;;;;;;;;;;4729736;30;20474;-92
2022/04/27 11:34:57;;;;;;;13.00;2.78;;;;;;;;;;4729313;30;20052;-93
2022/04/27 11:37:23;;;;;;;8.70;2.95;;;;;;;;;;4727401;30;20040;-93
2022/04/27 11:40:11;;;;;;;10.02;3.38;;;;;;;;;;4741901;30;20388;-93
2022/04/27 11:42:41;;;;;;;10.55;2.97;;;;;;;;;;4742380;30;20044;-94
2022/04/27 11:45:08;;;;;;;9.00;3.17;;;;;;;;;;4741296;30;20116;-94
2022/04/27 11:47:35;;;;;;;7.68;2.70;;;;;;;;;;4725061;30;20044;-94
2022/04/27 11:50:05;;;;;;;8.52;3.00;;;;;;;;;;4726990;30;20118;-94
2022/04/27 11:52:32;;;;;;;14.32;3.20;;;;;;;;;;4742434;30;20055;-94
2022/04/27 11:55:02;;;;;;;7.60;3.08;;;;;;;;;;4727368;30;20147;-95
2022/04/27 11:57:31;;;;;;;13.05;3.55;;;;;;;;;;4730830;30;20142;-95
2022/04/27 11:59:58;;;;;;;5.85;2.83;;;;;;;;;;4742806;30;20056;-94
2022/04/27 12:02:28;;;;;;;9.38;3.42;;;;;;;;;;4729701;30;20056;-95
2022/04/27 12:05:02;;;;;;;8.55;2.88;;;;;;;;;;4744455;30;20107;-96
2022/04/27 12:07:35;;;;;;;6.80;3.08;;;;;;;;;;4731549;30;20487;-96
2022/04/27 12:10:02;;;;;;;3.45;2.33;;;;;;;;;;4729970;30;20064;-95
2022/04/27 12:12:30;;;;;;;13.20;3.20;;;;;;;;;;4735616;30;20064;-92
2022/04/27 12:14:58;;;;;;;6.45;2.78;;;;;;;;;;4741344;30;20147;-95
2022/04/27 12:17:43;;;;;;;7.15;3.67;;;;;;;;;;4730887;30;20059;-95
2022/04/27 12:20:11;;;;;;;8.18;3.30;;;;;;;;;;4734257;30;20052;-96
2022/04/27 12:22:37;;;;;;;10.15;3.42;;;;;;;;;;4731788;30;20052;-94
2022/04/27 12:25:05;;;;;;;8.18;2.83;;;;;;;;;;4750220;30;20052;-94
2022/04/27 12:27:31;;;;;;;4.03;2.80;;;;;;;;;;4732324;30;20056;-95
2022/04/27 12:30:07;;;;;;;9.27;2.80;;;;;;;;;;4730996;30;20048;-95
2022/04/27 12:32:34;;;;;;;7.43;2.75;;;;;;;;;;4731629;30;20125;-94
2022/04/27 12:37:52;;;;;;;7.32;3.13;;;;;;;;;;4743814;30;20053;-92
2022/04/27 12:40:18;;;;;;;10.45;3.38;;;;;;;;;;4744499;30;20052;-93
2022/04/27 12:43:00;;;;;;;12.27;2.92;;;;;;;;;;4728821;30;20052;-93
2022/04/27 12:45:26;;;;;;;9.43;3.25;;;;;;;;;;4726855;30;20048;-92
2022/04/27 12:47:53;;;;;;;6.07;3.50;;;;;;;;;;4726706;30;20049;-94
2022/04/27 12:50:19;;;;;;;12.73;3.65;;;;;;;;;;4729372;30;20048;-94
2022/04/27 12:52:46;;;;;;;11.95;3.25;;;;;;;;;;4730866;30;20127;-93
2022/04/27 12:55:14;;;;;;;8.25;2.88;;;;;;;;;;4732164;30;20056;-93
2022/04/27 12:57:47;;;;;;;7.72;2.92;;;;;;;;;;4734751;30;20071;-94
2022/04/27 13:00:13;;;;;;;9.02;3.33;;;;;;;;;;4733229;30;20528;-94
2022/04/27 13:02:40;;;;;;;9.43;3.20;;;;;;;;;;4730264;30;20044;-93
2022/04/27 13:05:08;;;;;;;5.60;2.92;;;;;;;;;;4744243;30;20067;-94
2022/04/27 13:07:34;;;;;;;12.55;3.58;;;;;;;;;;4743545;30;20533;-92
2022/04/27 13:12:45;;;;;;;7.15;2.90;;;;;;;;;;4743260;30;20055;-92
2022/04/27 13:15:11;;;;;;;5.00;2.88;;;;;;;;;;4744296;30;20048;-94
2022/04/27 13:17:38;;;;;;;8.45;3.22;;;;;;;;;;4729970;30;20052;-93
2022/04/27 13:20:06;;;;;;;10.43;3.53;;;;;;;;;;4730381;30;20044;-93
2022/04/27 13:22:32;;;;;;;9.43;2.60;;;;;;;;;;4730817;30;20047;-92
2022/04/27 13:24:58;;;;;;;7.65;2.75;;;;;;;;;;4732545;30;20086;-93
2022/04/27 13:27:25;;;;;;;7.05;2.53;;;;;;;;;;4743035;30;20055;-94
2022/04/27 13:29:51;;;;;;;6.57;2.55;;;;;;;;;;4728824;30;20495;-93
2022/04/27 13:32:17;;;;;;;15.07;3.30;;;;;;;;;;4743597;30;20083;-94
2022/04/27 13:34:43;;;;;;;8.68;3.00;;;;;;;;;;4727177;30;20052;-95
2022/04/27 13:37:09;;;;;;;8.10;2.80;;;;;;;;;;4728518;30;20052;-93
2022/04/27 13:39:39;;;;;;;6.35;2.80;;;;;;;;;;4731707;30;20048;-94
2022/04/27 13:42:07;;;;;;;5.97;2.53;;;;;;;;;;4732578;30;20044;-91
2022/04/27 13:44:36;;;;;;;8.63;3.13;;;;;;;;;;4731797;30;20433;-93
2022/04/27 13:47:02;;;;;;;3.13;2.28;;;;;;;;;;4730122;30;20080;-94
2022/04/27 13:49:47;;;;;;;5.85;2.75;;;;;;;;;;4729433;30;20060;-95
2022/04/27 13:52:21;;;;;;;9.80;3.17;;;;;;;;;;4728821;30;20054;-94
2022/04/27 13:55:04;;;;;;;9.90;2.78;;;;;;;;;;4729737;30;20064;-94
2022/04/27 13:57:31;;;;;;;4.85;2.67;;;;;;;;;;4730133;30;20139;-93
2022/04/27 14:00:06;;;;;;;5.38;2.60;;;;;;;;;;4729432;30;20052;-92
2022/04/27 14:02:36;;;;;;;5.15;2.22;;;;;;;;;;4728242;30;20044;-92
2022/04/27 14:05:23;;;;;;;6.38;2.35;;;;;;;;;;4737044;30;20110;-91
2022/04/27 14:08:16;;;;;;;10.05;3.33;;;;;;;;;;4717160;30;20388;-91
2022/04/27 14:11:03;;;;;;;9.35;3.90;;;;;;;;;;4711385;30;20067;-92
2022/04/27 14:13:52;;;;;;;12.75;3.67;;;;;;;;;;4710431;30;20115;-92
2022/04/27 14:19:34;;;;;;;9.68;2.65;;;;;;;;;;4725294;30;20080;-91
2022/04/27 14:22:06;;;;;;;11.60;3.17;;;;;;;;;;4724554;30;20120;-91
2022/04/27 14:24:36;;;;;;;8.27;3.67;;;;;;;;;;4710818;30;20053;-92
2022/04/27 14:27:31;;;;;;;5.25;2.55;;;;;;;;;;4710147;30;20065;-91
2022/04/27 14:30:16;;;;;;;;;;;;;;;;;;;;;
2022/04/27 14:33:01;;;;;;;7.97;2.55;;;;;;;;;;4732292;30;20053;-93
2022/04/27 14:35:33;;;;;;;12.73;2.80;;;;;;;;;;4709870;30;20061;-92
2022/04/27 14:38:13;;;;;;;;;;;;;;;;;;;;;
2022/04/27 14:43:57;;;;;;;10.38;4.43;;;;;;;;;;4636802;30;20066;-93
2022/04/27 14:46:54;;;;;;;6.85;2.90;;;;;;;;;;4636484;30;20054;-92
2022/04/27 14:49:28;;;;;;;5.38;2.67;;;;;;;;;;4621935;30;20541;-92
2022/04/27 14:52:15;;;;;;;5.85;2.33;;;;;;;;;;4624031;30;20051;-91
2022/04/27 14:58:43;;;;;;;;;;;;;;;;;;;;;
2022/04/27 15:01:50;;;;;;;5.82;2.53;;;;;;;;;;4632701;30;20163;-92
2022/04/27 15:08:35;;;;;;;;;;;;;;;;;;;;;
2022/04/27 15:11:59;;;;;;;10.10;2.83;;;;;;;;;;4670648;30;20069;-92
2022/04/27 15:17:31;;;;;;;6.10;2.63;;;;;;;;;;4668503;30;20054;-92
2022/04/27 15:29:36;;;;;;;5.75;2.38;;;;;;;;;;4669413;30;20390;-92
2022/04/27 15:39:27;;;;;;;6.68;2.13;;;;;;;;;;4650720;30;20058;-91
2022/04/27 15:41:57;;;;;;;6.25;2.88;;;;;;;;;;4636435;30;20409;-91
2022/04/27 15:44:50;;;;;;;;;;;;;;;;;;;;;
2022/04/27 15:47:37;;;;;;;12.30;2.72;;;;;;;;;;4841393;24;20034;-91
2022/04/27 15:50:41;;;;;;;8.55;3.00;;;;;;;;;;4687396;30;20065;-91
2022/04/27 15:53:45;;;;;;;8.30;2.08;;;;;;;;;;4686830;30;20075;-92
2022/04/27 15:57:03;;;;;;;;;;;;;;;;;;;;;